Time;durP1;ratioP1;P1;durP2;ratioP2;P2;SDS_P1;SDS_P2;PMS_P1;PMS_P2;Temp;Humidity;BMP_temperature;BMP_pressure;BME280_temperature;BME280_humidity;BME280_pressure;Samples;Min_cycle;Max_cycle;Signal;HPM_P1;HPM_P2
2023/10/06 00:01:42;;;;;;;;;;;;;;;12.72;100.00;100337.28;5014398;28;859;-63
2023/10/06 00:04:12;;;;;;;;;;;;;;;12.68;100.00;100333.75;5014496;28;1946;-63
2023/10/06 00:06:41;;;;;;;;;;;;;;;12.66;100.00;100334.13;5014724;28;820;-62
2023/10/06 00:09:28;;;;;;;;;;;;;;;12.61;100.00;100331.78;5014251;28;820;-63
2023/10/06 00:11:55;;;;;;;;;;;;;;;12.55;100.00;100331.41;5014324;28;981;-63
2023/10/06 00:17:21;;;;;;;;;;;;;;;12.46;100.00;100326.31;5014143;28;882;-63
2023/10/06 00:19:54;;;;;;;;;;;;;;;12.45;100.00;100323.94;5014110;28;1093;-63
2023/10/06 00:22:26;;;;;;;;;;;;;;;12.45;100.00;100321.16;5014226;28;895;-63
2023/10/06 00:24:58;;;;;;;;;;;;;;;12.44;100.00;100319.59;5013984;28;1975;-62
2023/10/06 00:27:29;;;;;;;;;;;;;;;12.40;100.00;100319.59;5014210;28;844;-63
2023/10/06 00:29:56;;;;;;;;;;;;;;;12.38;100.00;100324.75;5013839;28;915;-63
2023/10/06 00:32:26;;;;;;;;;;;;;;;12.36;100.00;100316.03;5013966;28;891;-62
2023/10/06 00:35:10;;;;;;;;;;;;;;;12.35;100.00;100314.44;5013739;28;1050;-63
2023/10/06 00:37:39;;;;;;;;;;;;;;;12.32;100.00;100315.28;5014033;28;844;-63
2023/10/06 00:40:11;;;;;;;;;;;;;;;12.34;100.00;100312.88;5013910;28;836;-62
2023/10/06 00:42:38;;;;;;;;;;;;;;;12.31;100.00;100313.69;5013933;28;840;-63
2023/10/06 00:45:07;;;;;;;;;;;;;;;12.28;100.00;100314.50;5013695;28;1886;-63
2023/10/06 00:47:41;;;;;;;;;;;;;;;12.26;100.00;100312.13;5013579;28;874;-63
2023/10/06 00:50:15;;;;;;;;;;;;;;;12.24;100.00;100313.72;4995984;28;1216;-63
2023/10/06 00:52:42;;;;;;;;;;;;;;;12.24;100.00;100313.72;5013454;28;931;-63
2023/10/06 00:55:14;;;;;;;;;;;;;;;12.23;100.00;100312.16;5013417;28;934;-63
2023/10/06 00:57:40;;;;;;;;;;;;;;;12.22;100.00;100305.78;5013554;28;934;-64
2023/10/06 01:00:19;;;;;;;;;;;;;;;12.24;100.00;100299.84;5013334;28;836;-63
2023/10/06 01:02:47;;;;;;;;;;;;;;;12.22;100.00;100305.78;5013311;28;844;-63
2023/10/06 01:05:15;;;;;;;;;;;;;;;12.22;100.00;100296.69;5013174;28;1882;-63
2023/10/06 01:07:45;;;;;;;;;;;;;;;12.24;100.00;100299.84;5013398;28;840;-63
2023/10/06 01:10:17;;;;;;;;;;;;;;;12.23;100.00;100293.53;5013408;28;840;-63
2023/10/06 01:12:51;;;;;;;;;;;;;;;12.24;100.00;100292.31;5013429;28;1387;-63
2023/10/06 01:15:19;;;;;;;;;;;;;;;12.23;100.00;100292.75;5012836;28;1274;-63
2023/10/06 01:17:48;;;;;;;;;;;;;;;12.21;100.00;100293.13;5013081;28;915;-63
2023/10/06 01:20:33;;;;;;;;;;;;;;;12.19;100.00;100287.22;5012926;28;864;-63
2023/10/06 01:23:00;;;;;;;;;;;;;;;12.17;100.00;100289.59;5012989;28;891;-63
2023/10/06 01:25:27;;;;;;;;;;;;;;;12.17;100.00;100292.34;5012663;28;1906;-62
2023/10/06 01:27:54;;;;;;;;;;;;;;;12.14;100.00;100293.19;5012903;28;844;-63
2023/10/06 01:30:21;;;;;;;;;;;;;;;12.12;100.00;100286.44;5012798;28;873;-63
2023/10/06 01:32:51;;;;;;;;;;;;;;;12.09;100.00;100288.03;5012775;28;864;-63
2023/10/06 01:35:20;;;;;;;;;;;;;;;12.06;100.00;100283.31;5012890;28;852;-63
2023/10/06 01:37:48;;;;;;;;;;;;;;;12.05;100.00;100282.53;5012616;28;880;-63
2023/10/06 01:42:50;;;;;;;;;;;;;;;12.03;100.00;100281.31;5012776;28;713;-63
2023/10/06 01:45:21;;;;;;;;;;;;;;;12.01;100.00;100278.97;5012706;28;1938;-63
2023/10/06 01:50:35;;;;;;;;;;;;;;;12.00;100.00;100277.38;5012541;28;825;-63
2023/10/06 01:53:06;;;;;;;;;;;;;;;12.00;100.00;100276.59;5012589;28;824;-63
2023/10/06 01:55:39;;;;;;;;;;;;;;;12.01;100.00;100286.47;5012337;28;839;-63
2023/10/06 01:58:11;;;;;;;;;;;;;;;12.00;100.00;100279.38;5012464;28;898;-63
2023/10/06 02:00:37;;;;;;;;;;;;;;;11.99;100.00;100284.13;5012381;28;824;-63
2023/10/06 02:03:09;;;;;;;;;;;;;;;11.99;100.00;100281.34;5012390;28;864;-63
2023/10/06 02:05:39;;;;;;;;;;;;;;;12.01;100.00;100278.16;5012303;28;1945;-63
2023/10/06 02:08:09;;;;;;;;;;;;;;;12.03;100.00;100278.53;5012352;28;943;-63
2023/10/06 02:10:36;;;;;;;;;;;;;;;12.05;100.00;100278.94;5012202;28;840;-63
2023/10/06 02:13:05;;;;;;;;;;;;;;;12.05;100.00;100276.16;5011792;28;924;-63
2023/10/06 02:15:32;;;;;;;;;;;;;;;12.09;100.00;100271.41;5011994;28;1075;-63
2023/10/06 02:17:59;;;;;;;;;;;;;;;12.09;100.00;100265.09;5012099;28;1034;-63
2023/10/06 02:22:52;;;;;;;;;;;;;;;12.03;100.00;100271.03;5012188;28;710;-63
2023/10/06 02:25:22;;;;;;;;;;;;;;;12.04;100.00;100275.38;5011803;28;1906;-63
2023/10/06 02:27:50;;;;;;;;;;;;;;;12.07;100.00;100273.00;5012130;28;876;-63
2023/10/06 02:30:19;;;;;;;;;;;;;;;12.05;100.00;100271.44;5012072;28;871;-63
2023/10/06 02:32:46;;;;;;;;;;;;;;;12.07;100.00;100275.78;5011894;28;852;-63
2023/10/06 02:35:12;;;;;;;;;;;;;;;12.04;100.00;100269.84;5011995;28;828;-63
2023/10/06 02:37:39;;;;;;;;;;;;;;;11.99;100.00;100264.72;5011842;28;844;-63
2023/10/06 02:40:11;;;;;;;;;;;;;;;11.97;100.00;100269.88;5011913;28;915;-63
2023/10/06 02:42:47;;;;;;;;;;;;;;;11.94;100.00;100269.88;5011837;28;895;-63
2023/10/06 02:45:20;;;;;;;;;;;;;;;11.94;100.00;100265.13;5011789;28;1882;-63
2023/10/06 02:47:47;;;;;;;;;;;;;;;11.96;100.00;100270.28;5011732;28;868;-63
2023/10/06 02:50:20;;;;;;;;;;;;;;;11.97;100.00;100269.06;5011850;28;871;-63
2023/10/06 02:52:47;;;;;;;;;;;;;;;11.97;100.00;100261.56;5011630;28;911;-63
2023/10/06 02:55:32;;;;;;;;;;;;;;;11.97;100.00;100260.75;5010425;28;1291;-63
2023/10/06 02:57:59;;;;;;;;;;;;;;;11.92;100.00;100267.50;5011710;28;888;-63
2023/10/06 03:02:56;;;;;;;;;;;;;;;11.89;100.00;100262.00;5011618;28;936;-63
2023/10/06 03:05:32;;;;;;;;;;;;;;;11.89;100.00;100257.25;5011556;28;1881;-63
2023/10/06 03:08:00;;;;;;;;;;;;;;;11.85;100.00;100259.19;5011849;28;876;-63
2023/10/06 03:10:30;;;;;;;;;;;;;;;11.87;100.00;100253.25;5011819;28;892;-63
2023/10/06 03:12:57;;;;;;;;;;;;;;;11.88;100.00;100255.63;5004543;28;904;-63
2023/10/06 03:15:36;;;;;;;;;;;;;;;11.90;100.00;100253.25;5010651;28;1242;-63
2023/10/06 03:18:03;;;;;;;;;;;;;;;11.92;100.00;100250.09;4994175;28;1276;-63
2023/10/06 03:20:40;;;;;;;;;;;;;;;11.91;100.00;100243.78;5011729;28;829;-63
2023/10/06 03:23:24;;;;;;;;;;;;;;;11.93;100.00;100240.63;5011556;28;833;-63
2023/10/06 03:25:53;;;;;;;;;;;;;;;11.96;100.00;100248.09;5015121;28;1910;-64
2023/10/06 03:28:24;;;;;;;;;;;;;;;11.99;100.00;100241.75;5015129;28;620;-63
2023/10/06 03:30:52;;;;;;;;;;;;;;;12.01;100.00;100244.91;5015092;28;923;-63
2023/10/06 03:33:19;;;;;;;;;;;;;;;12.01;100.00;100256.00;5014880;28;872;-64
2023/10/06 03:35:48;;;;;;;;;;;;;;;11.96;100.00;100257.19;5014996;28;907;-64
2023/10/06 03:46:08;;;;;;;;;;;;;;;11.52;100.00;100255.72;5014727;28;1882;-63
2023/10/06 03:48:35;;;;;;;;;;;;;;;11.44;100.00;100254.91;4997185;28;1760;-63
2023/10/06 03:51:04;;;;;;;;;;;;;;;11.35;100.00;100250.97;5014652;28;872;-63
2023/10/06 03:53:31;;;;;;;;;;;;;;;11.21;100.00;100252.56;5014686;28;918;-63
2023/10/06 03:55:57;;;;;;;;;;;;;;;11.07;100.00;100249.78;5014538;28;809;-63
2023/10/06 03:58:31;;;;;;;;;;;;;;;10.99;100.00;100245.47;4996996;28;1701;-63
2023/10/06 04:00:58;;;;;;;;;;;;;;;10.89;100.00;100251.78;5014440;28;866;-63
2023/10/06 04:03:24;;;;;;;;;;;;;;;10.81;100.00;100248.97;5014477;28;821;-63
2023/10/06 04:05:51;;;;;;;;;;;;;;;10.76;100.00;100263.22;5014303;28;1886;-63
2023/10/06 04:08:20;;;;;;;;;;;;;;;10.71;100.00;100255.31;5014359;28;818;-63
2023/10/06 04:10:48;;;;;;;;;;;;;;;10.63;100.00;100253.72;5014302;28;891;-63
2023/10/06 04:13:18;;;;;;;;;;;;;;;10.57;100.00;100250.53;5006348;28;1020;-63
2023/10/06 04:15:52;;;;;;;;;;;;;;;10.54;100.00;100256.03;5014217;28;844;-63
2023/10/06 04:18:21;;;;;;;;;;;;;;;10.51;100.00;100256.84;5014147;28;872;-63
2023/10/06 04:20:49;;;;;;;;;;;;;;;10.49;100.00;100257.22;5014091;28;878;-63
2023/10/06 04:23:17;;;;;;;;;;;;;;;10.49;100.00;100261.97;5013977;28;911;-63
2023/10/06 04:25:44;;;;;;;;;;;;;;;10.48;100.00;100261.19;5013869;28;1988;-63
2023/10/06 04:28:14;;;;;;;;;;;;;;;10.48;100.00;100258.41;5014087;28;917;-62
2023/10/06 04:30:42;;;;;;;;;;;;;;;10.54;100.00;100256.84;5013841;28;836;-63
2023/10/06 04:33:10;;;;;;;;;;;;;;;10.68;100.00;100258.84;5013933;28;828;-63
2023/10/06 04:35:40;;;;;;;;;;;;;;;10.91;100.00;100260.47;5013073;28;1248;-62
2023/10/06 04:38:12;;;;;;;;;;;;;;;11.10;100.00;100267.59;5013838;28;837;-63
2023/10/06 04:40:41;;;;;;;;;;;;;;;11.26;100.00;100273.50;5013839;28;797;-63
2023/10/06 04:43:06;;;;;;;;;;;;;;;11.37;100.00;100274.31;5014033;28;942;-63
2023/10/06 04:45:33;;;;;;;;;;;;;;;11.50;100.00;100276.66;4996165;28;1894;-63
2023/10/06 04:48:03;;;;;;;;;;;;;;;11.62;100.00;100279.03;5013737;28;845;-63
2023/10/06 04:50:30;;;;;;;;;;;;;;;11.74;100.00;100283.34;5013704;28;868;-64
2023/10/06 04:52:56;;;;;;;;;;;;;;;11.83;100.00;100283.72;5013365;28;847;-64
2023/10/06 04:55:23;;;;;;;;;;;;;;;11.93;100.00;100285.72;5012152;28;1201;-63
2023/10/06 04:57:50;;;;;;;;;;;;;;;12.08;100.00;100293.97;5013361;28;944;-64
2023/10/06 05:00:19;;;;;;;;;;;;;;;12.23;100.00;100290.75;5013412;28;845;-63
2023/10/06 05:02:47;;;;;;;;;;;;;;;12.42;100.00;100288.72;5013216;28;833;-63
2023/10/06 05:05:23;;;;;;;;;;;;;;;12.65;100.00;100285.41;5013470;28;1957;-63
2023/10/06 05:07:50;;;;;;;;;;;;;;;12.86;100.00;100290.03;5013259;28;895;-63
2023/10/06 05:10:21;;;;;;;;;;;;;;;13.10;100.00;100287.47;4995590;28;873;-62
2023/10/06 05:12:48;;;;;;;;;;;;;;;13.40;100.00;100303.53;5007364;28;1060;-63
2023/10/06 05:15:23;;;;;;;;;;;;;;;13.65;100.00;100303.31;5011024;28;1447;-63
2023/10/06 05:17:56;;;;;;;;;;;;;;;13.95;100.00;100308.16;5013108;28;852;-63
2023/10/06 05:20:24;;;;;;;;;;;;;;;14.19;100.00;100308.31;4995329;28;1363;-63
2023/10/06 05:22:52;;;;;;;;;;;;;;;14.48;100.00;100308.75;5012952;28;868;-63
2023/10/06 05:25:19;;;;;;;;;;;;;;;14.70;100.00;100309.28;5012750;28;1969;-63
2023/10/06 05:27:47;;;;;;;;;;;;;;;14.92;100.00;100315.34;5012862;28;888;-63
2023/10/06 05:30:14;;;;;;;;;;;;;;;15.01;100.00;100306.47;5012870;28;837;-63
2023/10/06 05:32:42;;;;;;;;;;;;;;;15.14;100.00;100306.66;5012966;28;1072;-63
2023/10/06 05:35:10;;;;;;;;;;;;;;;15.29;100.00;100308.78;5012724;28;927;-64
2023/10/06 05:37:36;;;;;;;;;;;;;;;15.40;100.00;100307.84;5012687;28;847;-64
2023/10/06 05:40:03;;;;;;;;;;;;;;;15.57;100.00;100309.53;5012681;28;943;-64
2023/10/06 05:42:33;;;;;;;;;;;;;;;15.57;100.00;100303.94;5012663;28;895;-65
2023/10/06 05:45:05;;;;;;;;;;;;;;;15.61;100.00;100307.47;5012537;28;1910;-64
2023/10/06 05:47:34;;;;;;;;;;;;;;;15.89;100.00;100310.97;5011658;28;880;-63
2023/10/06 05:50:01;;;;;;;;;;;;;;;15.99;100.00;100312.00;5012410;28;950;-63
2023/10/06 05:52:27;;;;;;;;;;;;;;;15.94;100.00;100313.28;5012492;28;815;-63
2023/10/06 05:54:57;;;;;;;;;;;;;;;16.03;100.00;100316.28;5012434;28;813;-63
2023/10/06 05:57:24;;;;;;;;;;;;;;;16.32;100.00;100322.09;5012360;28;851;-64
2023/10/06 05:59:51;;;;;;;;;;;;;;;16.50;100.00;100320.94;5012347;28;875;-64
2023/10/06 06:02:18;;;;;;;;;;;;;;;16.63;100.00;100323.88;5012309;28;880;-63
2023/10/06 06:04:44;;;;;;;;;;;;;;;17.00;100.00;100324.66;5012516;28;1890;-64
2023/10/06 06:07:11;;;;;;;;;;;;;;;17.31;100.00;100325.91;5012321;28;856;-63
2023/10/06 06:09:38;;;;;;;;;;;;;;;17.59;100.00;100332.03;5012200;28;853;-63
2023/10/06 06:12:05;;;;;;;;;;;;;;;17.69;100.00;100333.00;5012030;28;1153;-63
2023/10/06 06:14:32;;;;;;;;;;;;;;;17.85;100.00;100335.00;5014095;28;1539;-63
2023/10/06 06:17:00;;;;;;;;;;;;;;;18.28;100.00;100339.41;5031720;28;955;-63
2023/10/06 06:19:26;;;;;;;;;;;;;;;18.44;100.00;100344.19;5031731;28;833;-63
2023/10/06 06:21:53;;;;;;;;;;;;;;;18.66;100.00;100331.13;5031811;28;832;-64
2023/10/06 06:24:22;;;;;;;;;;;;;;;19.08;100.00;100335.91;5031837;28;848;-64
2023/10/06 06:26:49;;;;;;;;;;;;;;;18.83;100.00;100337.44;5031890;28;840;-64
2023/10/06 06:29:19;;;;;;;;;;;;;;;18.56;100.00;100346.19;5031688;28;828;-64
2023/10/06 06:31:49;;;;;;;;;;;;;;;18.45;100.00;100345.75;5031769;28;859;-64
2023/10/06 06:34:16;;;;;;;;;;;;;;;18.52;100.00;100337.94;5031670;28;828;-64
2023/10/06 06:36:45;;;;;;;;;;;;;;;18.51;100.00;100343.97;5031714;28;840;-63
2023/10/06 06:39:11;;;;;;;;;;;;;;;18.44;100.00;100349.78;5031582;28;836;-64
2023/10/06 06:41:38;;;;;;;;;;;;;;;18.33;100.00;100352.88;5031538;28;886;-64
2023/10/06 07:12:54;;;;;;;;;;;;;;;20.22;100.00;100341.72;6012856;23;1545;-59
2023/10/06 07:15:23;;;;;;;;;;;;;;;20.50;100.00;100340.66;4995512;28;895;-59
2023/10/06 07:17:53;;;;;;;;;;;;;;;20.72;100.00;100342.72;4995979;28;907;-59
2023/10/06 07:20:24;;;;;;;;;;;;;;;20.70;100.00;100343.16;4995592;28;943;-59
2023/10/06 07:22:54;;;;;;;;;;;;;;;20.76;100.00;100352.56;4978375;28;1189;-59
2023/10/06 07:25:26;;;;;;;;;;;;;;;21.13;100.00;100346.31;4995547;28;1898;-59
2023/10/06 07:27:55;;;;;;;;;;;;;;;21.49;100.00;100344.91;4995720;28;967;-59
2023/10/06 07:30:22;;;;;;;;;;;;;;;21.51;100.00;100342.41;4977767;28;1403;-59
2023/10/06 07:32:50;;;;;;;;;;;;;;;21.65;100.00;100350.22;4995458;28;896;-59
2023/10/06 07:35:18;;;;;;;;;;;;;;;21.63;100.00;100349.91;4995325;28;824;-59
2023/10/06 07:37:45;;;;;;;;;;;;;;;21.65;100.00;100346.66;4978042;28;1039;-59
2023/10/06 07:40:13;;;;;;;;;;;;;;;21.59;100.00;100343.66;4995168;28;998;-59
2023/10/06 07:42:41;;;;;;;;;;;;;;;21.79;100.00;100343.25;4995435;28;959;-59
2023/10/06 07:45:08;;;;;;;;;;;;;;;22.28;100.00;100350.78;4995073;28;1882;-59
2023/10/06 07:47:36;;;;;;;;;;;;;;;22.71;100.00;100348.81;4995149;28;836;-59
2023/10/06 07:50:06;;;;;;;;;;;;;;;22.97;100.00;100343.56;4995301;28;840;-58
2023/10/06 07:52:33;;;;;;;;;;;;;;;23.14;100.00;100346.81;4994951;28;1239;-58
2023/10/06 07:55:06;;;;;;;;;;;;;;;23.14;100.00;100349.63;4995045;28;880;-59
2023/10/06 07:57:36;;;;;;;;;;;;;;;23.08;100.00;100353.59;4994926;28;931;-58
2023/10/06 08:00:09;;;;;;;;;;;;;;;22.76;100.00;100356.63;4995103;28;828;-58
2023/10/06 08:02:39;;;;;;;;;;;;;;;22.74;100.00;100358.34;4995024;28;896;-59
2023/10/06 08:05:07;;;;;;;;;;;;;;;22.80;100.00;100354.44;4994855;28;1890;-59
2023/10/06 08:07:34;;;;;;;;;;;;;;;22.99;100.00;100355.16;4995088;28;907;-59
2023/10/06 08:10:00;;;;;;;;;;;;;;;22.97;100.00;100348.44;4993833;28;828;-59
2023/10/06 08:12:33;;;;;;;;;;;;;;;23.02;100.00;100347.81;4994499;28;957;-59
2023/10/06 08:15:09;;;;;;;;;;;;;;;23.08;100.00;100351.53;4994425;28;1299;-60
2023/10/06 08:17:38;;;;;;;;;;;;;;;23.06;100.00;100347.63;4994625;28;868;-59
2023/10/06 08:20:05;;;;;;;;;;;;;;;23.02;100.00;100351.44;4994613;28;854;-60
2023/10/06 08:22:33;;;;;;;;;;;;;;;22.84;100.00;100349.41;4994510;28;861;-61
2023/10/06 08:25:05;;;;;;;;;;;;;;;22.79;100.00;100347.25;4994274;28;1969;-59
2023/10/06 08:27:32;;;;;;;;;;;;;;;22.80;100.00;100356.47;4994330;28;919;-59
2023/10/06 08:29:59;;;;;;;;;;;;;;;22.83;100.00;100347.09;4994458;28;832;-59
2023/10/06 08:32:25;;;;;;;;;;;;;;;22.89;100.00;100350.78;4994208;28;911;-59
2023/10/06 08:34:53;;;;;;;;;;;;;;;24.01;100.00;100351.81;4994472;28;856;-59
2023/10/06 08:37:19;;;;;;;;;;;;;;;24.79;100.00;100337.56;4994122;28;864;-60
2023/10/06 08:39:46;;;;;;;;;;;;;;;24.99;100.00;100346.13;4976757;28;1301;-60
2023/10/06 08:42:15;;;;;;;;;;;;;;;25.60;89.10;100336.22;4994394;28;919;-60
2023/10/06 08:44:42;;;;;;;;;;;;;;;25.61;81.77;100337.81;4993945;28;1886;-60
2023/10/06 08:47:10;;;;;;;;;;;;;;;25.26;80.48;100335.75;4994118;28;645;-61
2023/10/06 08:49:43;;;;;;;;;;;;;;;24.62;79.85;100331.63;4993977;28;911;-61
2023/10/06 08:52:13;;;;;;;;;;;;;;;24.58;80.70;100328.22;4993702;28;1576;-61
2023/10/06 08:54:42;;;;;;;;;;;;;;;24.91;79.46;100330.06;4994507;28;1223;-61
2023/10/06 08:57:11;;;;;;;;;;;;;;;25.11;78.38;100329.34;4994010;28;820;-60
2023/10/06 08:59:43;;;;;;;;;;;;;;;25.37;76.39;100326.66;4993718;28;943;-61
2023/10/06 09:02:10;;;;;;;;;;;;;;;25.27;76.47;100323.19;4993774;28;872;-60
2023/10/06 09:04:37;;;;;;;;;;;;;;;25.67;75.99;100325.28;4993718;28;1949;-60
2023/10/06 09:07:11;;;;;;;;;;;;;;;26.26;74.68;100331.88;4993696;28;928;-60
2023/10/06 09:09:40;;;;;;;;;;;;;;;26.36;71.83;100319.13;4993607;28;808;-62
2023/10/06 09:12:09;;;;;;;;;;;;;;;25.91;69.75;100323.53;4993531;28;957;-60
2023/10/06 09:14:49;;;;;;;;;;;;;;;25.71;69.38;100324.28;4993275;28;1297;-60
2023/10/06 09:17:28;;;;;;;;;;;;;;;25.84;68.72;100319.81;4993478;28;879;-60
2023/10/06 09:19:55;;;;;;;;;;;;;;;26.10;67.99;100321.19;4993357;28;907;-60
2023/10/06 09:22:28;;;;;;;;;;;;;;;26.44;66.87;100322.28;4993264;28;907;-60
2023/10/06 09:25:04;;;;;;;;;;;;;;;26.82;65.05;100325.97;4993243;28;1907;-60
2023/10/06 09:27:31;;;;;;;;;;;;;;;26.96;64.81;100329.97;4993148;28;927;-60
2023/10/06 09:29:59;;;;;;;;;;;;;;;26.87;64.70;100316.75;4993226;28;919;-61
2023/10/06 09:32:26;;;;;;;;;;;;;;;26.27;65.84;100322.13;4993186;28;979;-60
2023/10/06 09:34:57;;;;;;;;;;;;;;;25.70;67.41;100320.66;4993224;28;911;-61
2023/10/06 09:37:26;;;;;;;;;;;;;;;25.44;68.33;100314.94;4993343;28;840;-60
2023/10/06 09:40:15;;;;;;;;;;;;;;;25.37;68.51;100321.78;4975552;28;1569;-60
2023/10/06 09:42:46;;;;;;;;;;;;;;;25.25;68.68;100315.19;4975570;28;2305;-60
2023/10/06 09:45:18;;;;;;;;;;;;;;;25.48;69.06;100318.34;4992949;28;1916;-61
2023/10/06 09:47:49;;;;;;;;;;;;;;;25.45;68.58;100314.44;4993052;28;829;-60
2023/10/06 09:50:19;;;;;;;;;;;;;;;25.42;68.68;100317.47;4992826;28;883;-60
2023/10/06 09:52:47;;;;;;;;;;;;;;;25.21;67.14;100322.31;4993015;28;954;-60
2023/10/06 09:55:17;;;;;;;;;;;;;;;25.28;67.88;100310.59;4993189;28;932;-60
2023/10/06 09:57:47;;;;;;;;;;;;;;;25.38;67.42;100314.84;4992824;28;831;-60
2023/10/06 10:00:18;;;;;;;;;;;;;;;25.17;67.34;100318.88;4992602;28;969;-60
2023/10/06 10:02:48;;;;;;;;;;;;;;;24.94;67.72;100324.19;4992694;28;884;-60
2023/10/06 10:05:22;;;;;;;;;;;;;;;24.65;68.65;100320.16;4992573;28;1879;-59
2023/10/06 10:07:49;;;;;;;;;;;;;;;24.45;69.38;100323.63;4992700;28;1432;-60
2023/10/06 10:10:23;;;;;;;;;;;;;;;24.38;68.34;100311.94;4992996;28;845;-61
2023/10/06 10:13:08;;;;;;;;;;;;;;;24.49;68.15;100317.81;4992592;28;1053;-60
2023/10/06 10:15:52;;;;;;;;;;;;;;;24.49;67.21;100303.69;4992612;28;844;-61
2023/10/06 10:18:35;;;;;;;;;;;;;;;24.88;66.20;100311.25;4992522;28;1165;-60
2023/10/06 10:21:08;;;;;;;;;;;;;;;25.36;64.50;100300.41;4992396;28;1068;-61
2023/10/06 10:23:39;;;;;;;;;;;;;;;25.51;63.94;100305.25;4992306;28;1364;-59
2023/10/06 10:26:18;;;;;;;;;;;;;;;25.13;64.38;100290.81;4974900;28;1923;-59
2023/10/06 10:29:05;;;;;;;;;;;;;;;24.93;63.73;100293.59;4992408;28;853;-59
2023/10/06 10:31:41;;;;;;;;;;;;;;;24.72;63.85;100292.75;4992309;28;1884;-59
2023/10/06 10:34:08;;;;;;;;;;;;;;;25.09;63.44;100283.81;4996317;28;825;-59
2023/10/06 10:36:35;;;;;;;;;;;;;;;25.71;61.81;100285.44;4999015;28;1054;-59
2023/10/06 10:39:12;;;;;;;;;;;;;;;26.06;60.87;100274.00;4998765;28;928;-59
2023/10/06 10:41:44;;;;;;;;;;;;;;;26.27;59.82;100273.97;4981313;28;1359;-60
2023/10/06 10:44:14;;;;;;;;;;;;;;;26.23;60.38;100281.91;4981573;28;1373;-59
2023/10/06 10:46:42;;;;;;;;;;;;;;;25.88;60.55;100277.13;4998806;28;1953;-59
2023/10/06 10:49:13;;;;;;;;;;;;;;;25.82;60.93;100274.25;4999022;28;875;-60
2023/10/06 10:52:00;;;;;;;;;;;;;;;26.46;60.57;100275.16;4998776;28;872;-59
2023/10/06 10:54:32;;;;;;;;;;;;;;;26.76;59.21;100276.97;4998608;28;2183;-60
2023/10/06 10:57:05;;;;;;;;;;;;;;;27.06;58.86;100266.09;4998688;28;876;-60
2023/10/06 10:59:52;;;;;;;;;;;;;;;27.71;57.32;100265.38;4998647;28;955;-60
2023/10/06 11:02:19;;;;;;;;;;;;;;;27.97;55.71;100267.28;4998593;28;860;-60
2023/10/06 11:04:48;;;;;;;;;;;;;;;28.02;53.97;100261.63;4998707;28;1882;-60
2023/10/06 11:07:18;;;;;;;;;;;;;;;27.63;52.73;100267.16;4998508;28;982;-60
2023/10/06 11:09:48;;;;;;;;;;;;;;;27.47;53.29;100260.13;4998603;28;1157;-61
2023/10/06 11:12:17;;;;;;;;;;;;;;;26.99;53.35;100260.88;4998597;28;1009;-60
2023/10/06 11:14:46;;;;;;;;;;;;;;;26.15;55.01;100264.56;4998446;28;1429;-58
2023/10/06 11:17:12;;;;;;;;;;;;;;;25.41;56.67;100260.13;4981007;28;848;-58
2023/10/06 11:19:40;;;;;;;;;;;;;;;25.11;57.86;100269.94;4998579;28;820;-58
2023/10/06 11:22:13;;;;;;;;;;;;;;;25.21;58.18;100260.09;4998464;28;856;-58
2023/10/06 11:24:40;;;;;;;;;;;;;;;25.77;57.28;100268.50;4998350;28;1975;-58
2023/10/06 11:27:17;;;;;;;;;;;;;;;26.73;54.74;100255.28;4998328;28;915;-59
2023/10/06 11:29:47;;;;;;;;;;;;;;;27.32;53.55;100260.31;4998305;28;947;-58
2023/10/06 11:32:15;;;;;;;;;;;;;;;27.79;52.04;100266.44;4998508;28;844;-58
2023/10/06 11:34:44;;;;;;;;;;;;;;;27.92;50.11;100268.06;4998358;28;836;-59
2023/10/06 11:37:13;;;;;;;;;;;;;;;27.19;50.69;100260.75;4998288;28;916;-58
2023/10/06 11:39:39;;;;;;;;;;;;;;;26.44;51.83;100269.22;4997127;28;899;-58
2023/10/06 11:42:24;;;;;;;;;;;;;;;26.32;53.08;100269.63;4998334;28;867;-58
2023/10/06 11:44:55;;;;;;;;;;;;;;;26.81;52.17;100257.16;4997176;28;1886;-58
2023/10/06 11:47:28;;;;;;;;;;;;;;;27.50;51.60;100273.28;4995153;28;892;-58
2023/10/06 11:50:08;;;;;;;;;;;;;;;27.86;49.70;100268.03;4995222;28;887;-58
2023/10/06 11:52:35;;;;;;;;;;;;;;;28.05;48.66;100262.66;4995134;28;840;-59
2023/10/06 11:55:08;;;;;;;;;;;;;;;28.48;47.59;100265.28;4995124;28;836;-59
2023/10/06 11:57:44;;;;;;;;;;;;;;;28.08;46.87;100265.25;4995316;28;915;-59
2023/10/06 12:00:17;;;;;;;;;;;;;;;27.26;48.19;100254.63;4995075;28;963;-59
2023/10/06 12:03:00;;;;;;;;;;;;;;;27.12;49.03;100263.28;4994805;28;900;-58
2023/10/06 12:05:27;;;;;;;;;;;;;;;27.00;48.98;100262.44;4994684;28;1882;-58
2023/10/06 12:07:59;;;;;;;;;;;;;;;26.63;49.53;100258.31;4977419;28;1390;-58
2023/10/06 12:10:26;;;;;;;;;;;;;;;26.98;49.21;100262.94;4994753;28;907;-58
2023/10/06 12:12:52;;;;;;;;;;;;;;;26.61;49.70;100255.22;4994978;28;894;-58
2023/10/06 12:15:20;;;;;;;;;;;;;;;26.38;50.63;100265.56;4994609;28;1017;-58
2023/10/06 12:17:47;;;;;;;;;;;;;;;26.49;50.29;100256.38;4994533;28;894;-58
2023/10/06 12:20:13;;;;;;;;;;;;;;;26.54;50.35;100252.78;4977008;28;1221;-58
2023/10/06 12:22:41;;;;;;;;;;;;;;;26.46;50.24;100257.38;4994607;28;817;-57
2023/10/06 12:25:14;;;;;;;;;;;;;;;26.66;50.06;100251.63;4994460;28;1918;-57
2023/10/06 12:27:51;;;;;;;;;;;;;;;26.85;49.76;100251.25;4994284;28;995;-57
2023/10/06 12:30:19;;;;;;;;;;;;;;;27.70;48.58;100263.84;4994536;28;832;-58
2023/10/06 12:32:45;;;;;;;;;;;;;;;28.43;46.58;100255.47;4994515;28;923;-57
2023/10/06 12:35:15;;;;;;;;;;;;;;;28.29;46.88;100256.47;4994408;28;878;-57
2023/10/06 12:37:46;;;;;;;;;;;;;;;28.07;47.41;100252.31;4993960;28;909;-58
2023/10/06 12:40:14;;;;;;;;;;;;;;;27.57;47.55;100257.84;4994355;28;844;-57
2023/10/06 12:42:42;;;;;;;;;;;;;;;26.88;48.65;100255.91;4994034;28;928;-58
2023/10/06 12:45:12;;;;;;;;;;;;;;;26.29;50.04;100262.91;4994002;28;1989;-57
2023/10/06 12:47:45;;;;;;;;;;;;;;;25.97;50.90;100264.91;4994125;28;904;-57
2023/10/06 12:50:16;;;;;;;;;;;;;;;25.80;51.41;100261.88;4994369;28;1538;-57
2023/10/06 12:52:42;;;;;;;;;;;;;;;25.91;51.65;100261.25;4994035;28;932;-57
2023/10/06 12:55:12;;;;;;;;;;;;;;;25.85;52.24;100261.13;4993821;28;861;-57
2023/10/06 12:57:40;;;;;;;;;;;;;;;25.65;52.75;100250.63;4993378;28;970;-57
2023/10/06 13:00:07;;;;;;;;;;;;;;;25.59;52.77;100259.03;4993839;28;809;-58
2023/10/06 13:02:35;;;;;;;;;;;;;;;25.66;52.89;100258.59;4993967;28;765;-57
2023/10/06 13:05:13;;;;;;;;;;;;;;;25.81;52.36;100257.75;4993540;28;1890;-58
2023/10/06 13:07:42;;;;;;;;;;;;;;;25.75;52.58;100263.34;4993690;28;895;-57
2023/10/06 13:10:09;;;;;;;;;;;;;;;25.63;52.99;100253.19;4993570;28;1324;-57
2023/10/06 13:12:39;;;;;;;;;;;;;;;25.40;53.46;100252.91;4993711;28;1244;-57
2023/10/06 13:15:08;;;;;;;;;;;;;;;25.54;53.68;100256.13;4993230;28;1574;-57
2023/10/06 13:17:36;;;;;;;;;;;;;;;26.04;53.17;100259.56;4993490;28;1014;-57
2023/10/06 13:20:07;;;;;;;;;;;;;;;26.18;52.42;100252.25;4993655;28;846;-57
2023/10/06 13:22:37;;;;;;;;;;;;;;;26.33;52.08;100251.34;4993401;28;923;-58
2023/10/06 13:25:07;;;;;;;;;;;;;;;26.45;51.95;100245.25;4993361;28;1985;-58
2023/10/06 13:27:34;;;;;;;;;;;;;;;26.57;51.34;100248.22;4975878;28;1192;-58
2023/10/06 13:30:06;;;;;;;;;;;;;;;26.24;51.52;100250.25;4976005;28;1271;-58
2023/10/06 13:32:36;;;;;;;;;;;;;;;25.71;52.32;100251.47;4993189;28;1287;-58
2023/10/06 13:35:05;;;;;;;;;;;;;;;25.41;53.59;100251.63;4993379;28;896;-58
2023/10/06 13:37:35;;;;;;;;;;;;;;;25.20;53.80;100256.50;4992947;28;912;-58
2023/10/06 13:40:02;;;;;;;;;;;;;;;25.11;54.27;100250.16;4993008;28;944;-57
2023/10/06 13:42:28;;;;;;;;;;;;;;;25.12;54.62;100266.63;4993048;28;868;-58
2023/10/06 13:44:55;;;;;;;;;;;;;;;25.04;54.81;100262.66;4993107;28;1886;-57
2023/10/06 13:47:22;;;;;;;;;;;;;;;24.84;55.20;100260.59;4992999;28;891;-57
2023/10/06 13:49:53;;;;;;;;;;;;;;;24.72;55.49;100259.63;4975531;28;1288;-57
2023/10/06 13:52:19;;;;;;;;;;;;;;;24.63;55.94;100271.81;4992964;28;856;-57